sensor_id;sensor_type;location;lat;lon;timestamp;P1;durP1;ratioP1;P2;durP2;ratioP2
42084;SDS011;27746;52.228;20.890;2023-01-15T00:02:03;20.80;;;10.90;;
42084;SDS011;27746;52.228;20.890;2023-01-15T00:04:30;21.05;;;9.00;;
42084;SDS011;27746;52.228;20.890;2023-01-15T00:06:57;16.48;;;8.63;;
42084;SDS011;27746;52.228;20.890;2023-01-15T00:09:24;18.80;;;8.93;;
42084;SDS011;27746;52.228;20.890;2023-01-15T00:11:53;16.08;;;9.63;;
42084;SDS011;27746;52.228;20.890;2023-01-15T00:14:20;17.35;;;9.00;;
42084;SDS011;27746;52.228;20.890;2023-01-15T00:16:49;13.40;;;8.07;;
42084;SDS011;27746;52.228;20.890;2023-01-15T00:19:17;19.55;;;10.38;;
42084;SDS011;27746;52.228;20.890;2023-01-15T00:21:44;18.73;;;9.32;;
42084;SDS011;27746;52.228;20.890;2023-01-15T00:24:11;24.15;;;10.43;;
42084;SDS011;27746;52.228;20.890;2023-01-15T00:26:57;18.30;;;8.90;;
42084;SDS011;27746;52.228;20.890;2023-01-15T00:29:42;17.02;;;9.30;;
42084;SDS011;27746;52.228;20.890;2023-01-15T00:32:09;19.92;;;10.63;;
42084;SDS011;27746;52.228;20.890;2023-01-15T00:34:36;19.20;;;10.43;;
42084;SDS011;27746;52.228;20.890;2023-01-15T00:37:03;19.13;;;11.05;;
42084;SDS011;27746;52.228;20.890;2023-01-15T00:39:30;17.45;;;10.15;;
42084;SDS011;27746;52.228;20.890;2023-01-15T00:42:00;18.95;;;10.10;;
42084;SDS011;27746;52.228;20.890;2023-01-15T00:44:27;20.42;;;11.68;;
42084;SDS011;27746;52.228;20.890;2023-01-15T00:46:54;22.70;;;10.43;;
42084;SDS011;27746;52.228;20.890;2023-01-15T00:49:21;21.33;;;10.55;;
42084;SDS011;27746;52.228;20.890;2023-01-15T00:51:48;19.05;;;10.32;;
42084;SDS011;27746;52.228;20.890;2023-01-15T00:54:16;18.92;;;9.70;;
42084;SDS011;27746;52.228;20.890;2023-01-15T00:56:43;18.02;;;10.35;;
42084;SDS011;27746;52.228;20.890;2023-01-15T00:59:12;24.08;;;10.35;;
42084;SDS011;27746;52.228;20.890;2023-01-15T01:01:39;19.85;;;9.43;;
42084;SDS011;27746;52.228;20.890;2023-01-15T01:04:06;17.10;;;9.63;;
42084;SDS011;27746;52.228;20.890;2023-01-15T01:06:33;18.10;;;9.73;;
42084;SDS011;27746;52.228;20.890;2023-01-15T01:09:01;16.00;;;9.57;;
42084;SDS011;27746;52.228;20.890;2023-01-15T01:11:28;17.15;;;8.85;;
42084;SDS011;27746;52.228;20.890;2023-01-15T01:13:58;15.95;;;8.95;;
42084;SDS011;27746;52.228;20.890;2023-01-15T01:16:28;18.00;;;8.57;;
42084;SDS011;27746;52.228;20.890;2023-01-15T01:18:57;18.80;;;10.38;;
42084;SDS011;27746;52.228;20.890;2023-01-15T01:21:26;16.38;;;8.85;;
42084;SDS011;27746;52.228;20.890;2023-01-15T01:23:53;17.13;;;10.02;;
42084;SDS011;27746;52.228;20.890;2023-01-15T01:26:20;18.50;;;10.68;;
42084;SDS011;27746;52.228;20.890;2023-01-15T01:28:48;20.13;;;9.30;;
42084;SDS011;27746;52.228;20.890;2023-01-15T01:31:16;19.75;;;8.82;;
42084;SDS011;27746;52.228;20.890;2023-01-15T01:33:46;18.98;;;9.43;;
42084;SDS011;27746;52.228;20.890;2023-01-15T01:36:13;22.10;;;9.00;;
42084;SDS011;27746;52.228;20.890;2023-01-15T01:38:40;19.30;;;8.68;;
42084;SDS011;27746;52.228;20.890;2023-01-15T01:41:08;18.15;;;8.63;;
42084;SDS011;27746;52.228;20.890;2023-01-15T01:43:50;17.98;;;9.27;;
42084;SDS011;27746;52.228;20.890;2023-01-15T01:46:18;14.80;;;7.87;;
42084;SDS011;27746;52.228;20.890;2023-01-15T01:48:46;17.83;;;8.85;;
42084;SDS011;27746;52.228;20.890;2023-01-15T01:51:14;15.70;;;8.05;;
42084;SDS011;27746;52.228;20.890;2023-01-15T01:53:42;16.35;;;8.32;;
42084;SDS011;27746;52.228;20.890;2023-01-15T01:56:10;14.32;;;7.93;;
42084;SDS011;27746;52.228;20.890;2023-01-15T01:58:37;17.27;;;9.02;;
42084;SDS011;27746;52.228;20.890;2023-01-15T02:01:04;14.80;;;8.63;;
42084;SDS011;27746;52.228;20.890;2023-01-15T02:03:33;16.80;;;7.78;;
42084;SDS011;27746;52.228;20.890;2023-01-15T02:06:03;17.55;;;8.20;;
42084;SDS011;27746;52.228;20.890;2023-01-15T02:08:32;14.55;;;7.85;;
42084;SDS011;27746;52.228;20.890;2023-01-15T02:11:03;15.60;;;7.72;;
42084;SDS011;27746;52.228;20.890;2023-01-15T02:13:32;13.65;;;7.70;;
42084;SDS011;27746;52.228;20.890;2023-01-15T02:16:02;14.35;;;7.47;;
42084;SDS011;27746;52.228;20.890;2023-01-15T02:18:33;14.00;;;7.00;;
42084;SDS011;27746;52.228;20.890;2023-01-15T02:21:05;14.68;;;7.63;;
42084;SDS011;27746;52.228;20.890;2023-01-15T02:26:24;12.70;;;7.35;;
42084;SDS011;27746;52.228;20.890;2023-01-15T02:28:54;11.63;;;6.80;;
42084;SDS011;27746;52.228;20.890;2023-01-15T02:31:24;13.50;;;7.07;;
42084;SDS011;27746;52.228;20.890;2023-01-15T02:33:54;16.52;;;7.22;;
42084;SDS011;27746;52.228;20.890;2023-01-15T02:36:22;17.40;;;7.57;;
42084;SDS011;27746;52.228;20.890;2023-01-15T02:38:50;16.15;;;8.13;;
42084;SDS011;27746;52.228;20.890;2023-01-15T02:41:20;15.20;;;7.28;;
42084;SDS011;27746;52.228;20.890;2023-01-15T02:43:49;13.52;;;6.65;;
42084;SDS011;27746;52.228;20.890;2023-01-15T02:46:18;14.40;;;7.60;;
42084;SDS011;27746;52.228;20.890;2023-01-15T02:48:49;13.23;;;6.97;;
42084;SDS011;27746;52.228;20.890;2023-01-15T02:51:18;11.77;;;6.15;;
42084;SDS011;27746;52.228;20.890;2023-01-15T02:53:47;14.15;;;7.72;;
42084;SDS011;27746;52.228;20.890;2023-01-15T02:56:17;15.27;;;7.55;;
42084;SDS011;27746;52.228;20.890;2023-01-15T02:58:47;14.75;;;7.38;;
42084;SDS011;27746;52.228;20.890;2023-01-15T03:01:16;11.88;;;6.82;;
42084;SDS011;27746;52.228;20.890;2023-01-15T03:03:48;14.27;;;7.20;;
42084;SDS011;27746;52.228;20.890;2023-01-15T03:06:18;12.77;;;6.82;;
42084;SDS011;27746;52.228;20.890;2023-01-15T03:08:47;14.90;;;7.15;;
42084;SDS011;27746;52.228;20.890;2023-01-15T03:11:17;15.82;;;7.40;;
42084;SDS011;27746;52.228;20.890;2023-01-15T03:13:45;12.80;;;7.10;;
42084;SDS011;27746;52.228;20.890;2023-01-15T03:16:15;11.45;;;6.70;;
42084;SDS011;27746;52.228;20.890;2023-01-15T03:19:02;15.00;;;7.35;;
42084;SDS011;27746;52.228;20.890;2023-01-15T03:21:32;14.52;;;7.85;;
42084;SDS011;27746;52.228;20.890;2023-01-15T03:24:03;14.23;;;6.88;;
42084;SDS011;27746;52.228;20.890;2023-01-15T03:26:31;13.50;;;6.47;;
42084;SDS011;27746;52.228;20.890;2023-01-15T03:28:59;13.98;;;7.35;;
42084;SDS011;27746;52.228;20.890;2023-01-15T03:31:27;14.63;;;6.78;;
42084;SDS011;27746;52.228;20.890;2023-01-15T03:33:54;14.77;;;7.25;;
42084;SDS011;27746;52.228;20.890;2023-01-15T03:36:22;13.73;;;7.00;;
42084;SDS011;27746;52.228;20.890;2023-01-15T03:38:50;15.38;;;7.60;;
42084;SDS011;27746;52.228;20.890;2023-01-15T03:41:18;14.13;;;6.63;;
42084;SDS011;27746;52.228;20.890;2023-01-15T03:43:52;14.68;;;6.90;;
42084;SDS011;27746;52.228;20.890;2023-01-15T03:46:25;15.30;;;7.00;;
42084;SDS011;27746;52.228;20.890;2023-01-15T03:48:58;13.55;;;7.88;;
42084;SDS011;27746;52.228;20.890;2023-01-15T03:51:30;14.27;;;7.25;;
42084;SDS011;27746;52.228;20.890;2023-01-15T03:53:59;14.00;;;6.38;;
42084;SDS011;27746;52.228;20.890;2023-01-15T03:56:29;18.63;;;7.32;;
42084;SDS011;27746;52.228;20.890;2023-01-15T03:58:59;14.15;;;7.43;;
42084;SDS011;27746;52.228;20.890;2023-01-15T04:01:27;12.30;;;6.75;;
42084;SDS011;27746;52.228;20.890;2023-01-15T04:03:57;14.90;;;7.20;;
42084;SDS011;27746;52.228;20.890;2023-01-15T04:06:25;12.18;;;6.57;;
42084;SDS011;27746;52.228;20.890;2023-01-15T04:08:55;17.98;;;7.28;;
42084;SDS011;27746;52.228;20.890;2023-01-15T04:11:22;13.15;;;6.85;;
42084;SDS011;27746;52.228;20.890;2023-01-15T04:13:50;11.65;;;7.03;;
42084;SDS011;27746;52.228;20.890;2023-01-15T04:16:20;13.95;;;6.78;;
42084;SDS011;27746;52.228;20.890;2023-01-15T04:18:49;11.68;;;6.18;;
42084;SDS011;27746;52.228;20.890;2023-01-15T04:21:16;14.88;;;7.10;;
42084;SDS011;27746;52.228;20.890;2023-01-15T04:23:43;11.63;;;6.28;;
42084;SDS011;27746;52.228;20.890;2023-01-15T04:26:12;12.30;;;6.35;;
42084;SDS011;27746;52.228;20.890;2023-01-15T04:28:39;14.82;;;6.25;;
42084;SDS011;27746;52.228;20.890;2023-01-15T04:31:06;12.35;;;6.30;;
42084;SDS011;27746;52.228;20.890;2023-01-15T04:33:33;14.60;;;5.72;;
42084;SDS011;27746;52.228;20.890;2023-01-15T04:36:01;9.35;;;5.32;;
42084;SDS011;27746;52.228;20.890;2023-01-15T04:38:29;11.30;;;5.60;;
42084;SDS011;27746;52.228;20.890;2023-01-15T04:40:59;13.90;;;7.35;;
42084;SDS011;27746;52.228;20.890;2023-01-15T04:43:45;12.63;;;5.93;;
42084;SDS011;27746;52.228;20.890;2023-01-15T04:46:30;12.05;;;5.60;;
42084;SDS011;27746;52.228;20.890;2023-01-15T04:48:58;11.80;;;5.90;;
42084;SDS011;27746;52.228;20.890;2023-01-15T04:51:25;12.15;;;5.57;;
42084;SDS011;27746;52.228;20.890;2023-01-15T04:53:52;9.55;;;5.57;;
42084;SDS011;27746;52.228;20.890;2023-01-15T04:56:19;12.18;;;5.53;;
42084;SDS011;27746;52.228;20.890;2023-01-15T04:58:48;13.55;;;6.50;;
42084;SDS011;27746;52.228;20.890;2023-01-15T05:01:15;12.05;;;5.35;;
42084;SDS011;27746;52.228;20.890;2023-01-15T05:03:43;11.55;;;5.05;;
42084;SDS011;27746;52.228;20.890;2023-01-15T05:06:10;12.10;;;5.53;;
42084;SDS011;27746;52.228;20.890;2023-01-15T05:08:38;11.55;;;5.45;;
42084;SDS011;27746;52.228;20.890;2023-01-15T05:11:06;9.20;;;5.50;;
42084;SDS011;27746;52.228;20.890;2023-01-15T05:13:34;10.02;;;4.57;;
42084;SDS011;27746;52.228;20.890;2023-01-15T05:16:10;9.32;;;4.57;;
42084;SDS011;27746;52.228;20.890;2023-01-15T05:18:38;8.35;;;4.10;;
42084;SDS011;27746;52.228;20.890;2023-01-15T05:21:12;7.90;;;4.43;;
42084;SDS011;27746;52.228;20.890;2023-01-15T05:26:06;8.90;;;4.28;;
42084;SDS011;27746;52.228;20.890;2023-01-15T05:28:33;7.65;;;4.15;;
42084;SDS011;27746;52.228;20.890;2023-01-15T05:31:05;7.32;;;4.03;;
42084;SDS011;27746;52.228;20.890;2023-01-15T05:33:35;9.67;;;3.93;;
42084;SDS011;27746;52.228;20.890;2023-01-15T05:36:02;6.80;;;3.50;;
42084;SDS011;27746;52.228;20.890;2023-01-15T05:38:29;7.38;;;3.65;;
42084;SDS011;27746;52.228;20.890;2023-01-15T05:40:56;7.72;;;4.03;;
42084;SDS011;27746;52.228;20.890;2023-01-15T05:43:24;8.40;;;4.63;;
42084;SDS011;27746;52.228;20.890;2023-01-15T05:45:51;9.90;;;4.20;;
42084;SDS011;27746;52.228;20.890;2023-01-15T05:48:18;7.68;;;3.42;;
42084;SDS011;27746;52.228;20.890;2023-01-15T05:50:46;7.18;;;3.50;;
42084;SDS011;27746;52.228;20.890;2023-01-15T05:53:14;7.40;;;3.63;;
42084;SDS011;27746;52.228;20.890;2023-01-15T05:55:41;7.82;;;4.03;;
42084;SDS011;27746;52.228;20.890;2023-01-15T05:58:08;6.63;;;3.15;;
42084;SDS011;27746;52.228;20.890;2023-01-15T06:00:35;8.18;;;3.75;;
42084;SDS011;27746;52.228;20.890;2023-01-15T06:03:02;7.10;;;3.22;;
42084;SDS011;27746;52.228;20.890;2023-01-15T06:05:29;6.70;;;3.90;;
42084;SDS011;27746;52.228;20.890;2023-01-15T06:07:58;8.27;;;3.10;;
42084;SDS011;27746;52.228;20.890;2023-01-15T06:10:25;5.68;;;3.05;;
42084;SDS011;27746;52.228;20.890;2023-01-15T06:12:52;8.50;;;3.78;;
42084;SDS011;27746;52.228;20.890;2023-01-15T06:15:19;6.25;;;3.22;;
42084;SDS011;27746;52.228;20.890;2023-01-15T06:17:48;7.30;;;3.25;;
42084;SDS011;27746;52.228;20.890;2023-01-15T06:20:15;6.20;;;3.17;;
42084;SDS011;27746;52.228;20.890;2023-01-15T06:22:42;7.32;;;3.38;;
42084;SDS011;27746;52.228;20.890;2023-01-15T06:25:11;6.30;;;3.30;;
42084;SDS011;27746;52.228;20.890;2023-01-15T06:27:38;5.78;;;3.10;;
42084;SDS011;27746;52.228;20.890;2023-01-15T06:30:09;8.93;;;3.30;;
42084;SDS011;27746;52.228;20.890;2023-01-15T06:32:36;8.05;;;3.15;;
42084;SDS011;27746;52.228;20.890;2023-01-15T06:35:03;5.88;;;3.30;;
42084;SDS011;27746;52.228;20.890;2023-01-15T06:37:32;6.38;;;3.05;;
42084;SDS011;27746;52.228;20.890;2023-01-15T06:39:59;7.03;;;3.35;;
42084;SDS011;27746;52.228;20.890;2023-01-15T06:42:28;6.65;;;3.08;;
42084;SDS011;27746;52.228;20.890;2023-01-15T06:45:13;6.75;;;3.60;;
42084;SDS011;27746;52.228;20.890;2023-01-15T06:48:09;5.97;;;3.13;;
42084;SDS011;27746;52.228;20.890;2023-01-15T06:50:36;8.35;;;3.50;;
42084;SDS011;27746;52.228;20.890;2023-01-15T06:53:03;5.28;;;3.00;;
42084;SDS011;27746;52.228;20.890;2023-01-15T06:55:33;5.57;;;3.13;;
42084;SDS011;27746;52.228;20.890;2023-01-15T06:58:02;6.88;;;2.97;;
42084;SDS011;27746;52.228;20.890;2023-01-15T07:00:29;5.78;;;2.97;;
42084;SDS011;27746;52.228;20.890;2023-01-15T07:02:58;6.15;;;3.47;;
42084;SDS011;27746;52.228;20.890;2023-01-15T07:05:25;6.40;;;3.13;;
42084;SDS011;27746;52.228;20.890;2023-01-15T07:07:52;10.02;;;3.97;;
42084;SDS011;27746;52.228;20.890;2023-01-15T07:10:19;6.10;;;2.90;;
42084;SDS011;27746;52.228;20.890;2023-01-15T07:12:47;6.90;;;3.45;;
42084;SDS011;27746;52.228;20.890;2023-01-15T07:15:15;6.57;;;3.17;;
42084;SDS011;27746;52.228;20.890;2023-01-15T07:17:42;8.05;;;3.33;;
42084;SDS011;27746;52.228;20.890;2023-01-15T07:20:10;6.05;;;3.17;;
42084;SDS011;27746;52.228;20.890;2023-01-15T07:22:37;8.57;;;4.25;;
42084;SDS011;27746;52.228;20.890;2023-01-15T07:25:05;5.85;;;2.90;;
42084;SDS011;27746;52.228;20.890;2023-01-15T07:27:32;8.52;;;3.88;;
42084;SDS011;27746;52.228;20.890;2023-01-15T07:29:59;6.15;;;3.13;;
42084;SDS011;27746;52.228;20.890;2023-01-15T07:32:30;7.03;;;3.42;;
42084;SDS011;27746;52.228;20.890;2023-01-15T07:34:58;8.73;;;3.72;;
42084;SDS011;27746;52.228;20.890;2023-01-15T07:37:25;6.95;;;3.20;;
42084;SDS011;27746;52.228;20.890;2023-01-15T07:39:52;8.23;;;3.40;;
42084;SDS011;27746;52.228;20.890;2023-01-15T07:42:22;7.22;;;2.85;;
42084;SDS011;27746;52.228;20.890;2023-01-15T07:45:07;7.13;;;3.38;;
42084;SDS011;27746;52.228;20.890;2023-01-15T07:47:53;5.35;;;2.72;;
42084;SDS011;27746;52.228;20.890;2023-01-15T07:50:38;12.77;;;2.95;;
42084;SDS011;27746;52.228;20.890;2023-01-15T07:53:05;5.32;;;2.95;;
42084;SDS011;27746;52.228;20.890;2023-01-15T07:55:33;9.40;;;3.65;;
42084;SDS011;27746;52.228;20.890;2023-01-15T07:58:01;5.15;;;2.83;;
42084;SDS011;27746;52.228;20.890;2023-01-15T08:00:28;6.70;;;2.88;;
42084;SDS011;27746;52.228;20.890;2023-01-15T08:02:57;7.60;;;4.20;;
42084;SDS011;27746;52.228;20.890;2023-01-15T08:05:24;9.30;;;4.88;;
42084;SDS011;27746;52.228;20.890;2023-01-15T08:07:51;7.53;;;3.33;;
42084;SDS011;27746;52.228;20.890;2023-01-15T08:10:18;7.65;;;3.30;;
42084;SDS011;27746;52.228;20.890;2023-01-15T08:12:48;9.48;;;4.18;;
42084;SDS011;27746;52.228;20.890;2023-01-15T08:15:33;7.00;;;3.30;;
42084;SDS011;27746;52.228;20.890;2023-01-15T08:18:05;10.65;;;4.30;;
42084;SDS011;27746;52.228;20.890;2023-01-15T08:20:33;7.15;;;3.55;;
42084;SDS011;27746;52.228;20.890;2023-01-15T08:23:01;9.68;;;3.28;;
42084;SDS011;27746;52.228;20.890;2023-01-15T08:25:28;5.82;;;3.10;;
42084;SDS011;27746;52.228;20.890;2023-01-15T08:27:58;7.50;;;4.10;;
42084;SDS011;27746;52.228;20.890;2023-01-15T08:30:26;5.95;;;2.70;;
42084;SDS011;27746;52.228;20.890;2023-01-15T08:32:57;5.28;;;2.97;;
42084;SDS011;27746;52.228;20.890;2023-01-15T08:35:26;7.60;;;3.85;;
42084;SDS011;27746;52.228;20.890;2023-01-15T08:37:53;5.80;;;3.08;;
42084;SDS011;27746;52.228;20.890;2023-01-15T08:40:21;7.65;;;3.55;;
42084;SDS011;27746;52.228;20.890;2023-01-15T08:42:48;7.88;;;3.00;;
42084;SDS011;27746;52.228;20.890;2023-01-15T08:45:15;8.88;;;2.78;;
42084;SDS011;27746;52.228;20.890;2023-01-15T08:47:42;9.20;;;3.20;;
42084;SDS011;27746;52.228;20.890;2023-01-15T08:50:10;10.43;;;4.00;;
42084;SDS011;27746;52.228;20.890;2023-01-15T08:52:38;9.18;;;3.28;;
42084;SDS011;27746;52.228;20.890;2023-01-15T08:55:06;8.70;;;3.45;;
42084;SDS011;27746;52.228;20.890;2023-01-15T08:57:33;6.28;;;3.22;;
42084;SDS011;27746;52.228;20.890;2023-01-15T09:00:02;7.50;;;3.97;;
42084;SDS011;27746;52.228;20.890;2023-01-15T09:02:30;7.05;;;2.95;;
42084;SDS011;27746;52.228;20.890;2023-01-15T09:04:57;6.22;;;3.80;;
42084;SDS011;27746;52.228;20.890;2023-01-15T09:07:24;7.10;;;3.25;;
42084;SDS011;27746;52.228;20.890;2023-01-15T09:09:53;7.43;;;3.05;;
42084;SDS011;27746;52.228;20.890;2023-01-15T09:12:20;5.88;;;2.70;;
42084;SDS011;27746;52.228;20.890;2023-01-15T09:14:50;4.88;;;2.70;;
42084;SDS011;27746;52.228;20.890;2023-01-15T09:17:17;6.35;;;3.17;;
42084;SDS011;27746;52.228;20.890;2023-01-15T09:19:44;5.82;;;2.75;;
42084;SDS011;27746;52.228;20.890;2023-01-15T09:22:12;6.60;;;3.00;;
42084;SDS011;27746;52.228;20.890;2023-01-15T09:24:39;7.25;;;3.47;;
42084;SDS011;27746;52.228;20.890;2023-01-15T09:27:08;7.22;;;2.75;;
42084;SDS011;27746;52.228;20.890;2023-01-15T09:29:36;7.32;;;2.78;;
42084;SDS011;27746;52.228;20.890;2023-01-15T09:32:04;7.50;;;3.10;;
42084;SDS011;27746;52.228;20.890;2023-01-15T09:34:32;7.05;;;3.20;;
42084;SDS011;27746;52.228;20.890;2023-01-15T09:36:59;7.18;;;3.75;;
42084;SDS011;27746;52.228;20.890;2023-01-15T09:39:26;7.38;;;3.50;;
42084;SDS011;27746;52.228;20.890;2023-01-15T09:41:56;6.45;;;3.00;;
42084;SDS011;27746;52.228;20.890;2023-01-15T09:44:38;6.70;;;2.97;;
42084;SDS011;27746;52.228;20.890;2023-01-15T09:47:10;8.20;;;3.45;;
42084;SDS011;27746;52.228;20.890;2023-01-15T09:49:42;6.35;;;3.00;;
42084;SDS011;27746;52.228;20.890;2023-01-15T09:52:16;6.93;;;2.80;;
42084;SDS011;27746;52.228;20.890;2023-01-15T09:54:48;7.07;;;3.63;;
42084;SDS011;27746;52.228;20.890;2023-01-15T09:57:18;6.40;;;3.78;;
42084;SDS011;27746;52.228;20.890;2023-01-15T09:59:47;5.85;;;3.15;;
42084;SDS011;27746;52.228;20.890;2023-01-15T10:02:18;7.28;;;3.97;;
42084;SDS011;27746;52.228;20.890;2023-01-15T10:04:48;7.55;;;3.45;;
42084;SDS011;27746;52.228;20.890;2023-01-15T10:07:17;9.23;;;4.00;;
42084;SDS011;27746;52.228;20.890;2023-01-15T10:09:47;11.40;;;4.55;;
42084;SDS011;27746;52.228;20.890;2023-01-15T10:12:16;10.07;;;5.03;;
42084;SDS011;27746;52.228;20.890;2023-01-15T10:17:56;9.20;;;3.88;;
42084;SDS011;27746;52.228;20.890;2023-01-15T10:20:32;6.85;;;3.20;;
42084;SDS011;27746;52.228;20.890;2023-01-15T10:23:06;6.70;;;3.40;;
42084;SDS011;27746;52.228;20.890;2023-01-15T10:25:37;6.57;;;3.27;;
42084;SDS011;27746;52.228;20.890;2023-01-15T10:28:09;6.47;;;3.95;;
42084;SDS011;27746;52.228;20.890;2023-01-15T10:30:40;7.73;;;3.67;;
42084;SDS011;27746;52.228;20.890;2023-01-15T10:33:13;8.63;;;3.63;;
42084;SDS011;27746;52.228;20.890;2023-01-15T10:35:46;7.22;;;3.55;;
42084;SDS011;27746;52.228;20.890;2023-01-15T10:38:18;7.32;;;4.15;;
42084;SDS011;27746;52.228;20.890;2023-01-15T10:40:57;7.93;;;4.03;;
42084;SDS011;27746;52.228;20.890;2023-01-15T10:43:30;6.85;;;3.35;;
42084;SDS011;27746;52.228;20.890;2023-01-15T10:46:02;6.97;;;3.83;;
42084;SDS011;27746;52.228;20.890;2023-01-15T10:48:33;6.50;;;3.10;;
42084;SDS011;27746;52.228;20.890;2023-01-15T10:51:08;8.65;;;3.63;;
42084;SDS011;27746;52.228;20.890;2023-01-15T10:53:39;7.20;;;3.30;;
42084;SDS011;27746;52.228;20.890;2023-01-15T10:56:09;6.70;;;3.53;;
42084;SDS011;27746;52.228;20.890;2023-01-15T10:58:40;7.38;;;3.10;;
42084;SDS011;27746;52.228;20.890;2023-01-15T11:01:11;6.78;;;3.45;;
42084;SDS011;27746;52.228;20.890;2023-01-15T11:03:40;7.15;;;3.03;;
42084;SDS011;27746;52.228;20.890;2023-01-15T11:06:11;7.75;;;3.70;;
42084;SDS011;27746;52.228;20.890;2023-01-15T11:08:40;6.28;;;2.92;;
42084;SDS011;27746;52.228;20.890;2023-01-15T11:11:13;5.78;;;2.80;;
42084;SDS011;27746;52.228;20.890;2023-01-15T11:13:50;7.28;;;3.10;;
42084;SDS011;27746;52.228;20.890;2023-01-15T11:16:35;6.22;;;2.72;;
42084;SDS011;27746;52.228;20.890;2023-01-15T11:19:25;6.65;;;3.08;;
42084;SDS011;27746;52.228;20.890;2023-01-15T11:22:04;5.28;;;2.97;;
42084;SDS011;27746;52.228;20.890;2023-01-15T11:24:34;6.47;;;3.35;;
42084;SDS011;27746;52.228;20.890;2023-01-15T11:27:03;6.32;;;3.13;;
42084;SDS011;27746;52.228;20.890;2023-01-15T11:29:32;9.55;;;3.47;;
42084;SDS011;27746;52.228;20.890;2023-01-15T11:32:00;7.72;;;3.28;;
42084;SDS011;27746;52.228;20.890;2023-01-15T11:34:30;7.43;;;3.45;;
42084;SDS011;27746;52.228;20.890;2023-01-15T11:37:01;6.75;;;3.30;;
42084;SDS011;27746;52.228;20.890;2023-01-15T11:39:28;8.23;;;3.67;;
42084;SDS011;27746;52.228;20.890;2023-01-15T11:42:00;6.28;;;3.22;;
42084;SDS011;27746;52.228;20.890;2023-01-15T11:44:52;8.50;;;3.70;;
42084;SDS011;27746;52.228;20.890;2023-01-15T11:47:37;5.78;;;3.00;;
42084;SDS011;27746;52.228;20.890;2023-01-15T11:50:24;6.30;;;3.10;;
42084;SDS011;27746;52.228;20.890;2023-01-15T11:53:12;7.32;;;3.35;;
42084;SDS011;27746;52.228;20.890;2023-01-15T11:55:48;8.63;;;3.60;;
42084;SDS011;27746;52.228;20.890;2023-01-15T11:58:16;7.28;;;3.65;;
42084;SDS011;27746;52.228;20.890;2023-01-15T12:00:43;5.45;;;2.75;;
42084;SDS011;27746;52.228;20.890;2023-01-15T12:03:16;6.47;;;3.70;;
42084;SDS011;27746;52.228;20.890;2023-01-15T12:05:46;6.57;;;3.40;;
42084;SDS011;27746;52.228;20.890;2023-01-15T12:08:17;6.43;;;2.90;;
42084;SDS011;27746;52.228;20.890;2023-01-15T12:10:48;6.57;;;3.10;;
42084;SDS011;27746;52.228;20.890;2023-01-15T12:13:33;8.90;;;3.83;;
42084;SDS011;27746;52.228;20.890;2023-01-15T12:16:03;6.67;;;3.40;;
42084;SDS011;27746;52.228;20.890;2023-01-15T12:21:15;7.60;;;3.75;;
42084;SDS011;27746;52.228;20.890;2023-01-15T12:23:48;7.07;;;3.80;;
42084;SDS011;27746;52.228;20.890;2023-01-15T12:26:22;8.15;;;3.58;;
42084;SDS011;27746;52.228;20.890;2023-01-15T12:28:53;8.65;;;3.30;;
42084;SDS011;27746;52.228;20.890;2023-01-15T12:31:22;6.30;;;2.88;;
42084;SDS011;27746;52.228;20.890;2023-01-15T12:33:52;7.43;;;3.40;;
42084;SDS011;27746;52.228;20.890;2023-01-15T12:36:25;6.97;;;3.08;;
42084;SDS011;27746;52.228;20.890;2023-01-15T12:38:55;6.72;;;3.47;;
42084;SDS011;27746;52.228;20.890;2023-01-15T12:41:26;6.63;;;3.45;;
42084;SDS011;27746;52.228;20.890;2023-01-15T12:44:15;6.85;;;3.55;;
42084;SDS011;27746;52.228;20.890;2023-01-15T12:47:02;8.40;;;3.60;;
42084;SDS011;27746;52.228;20.890;2023-01-15T12:49:34;6.78;;;3.08;;
42084;SDS011;27746;52.228;20.890;2023-01-15T12:52:06;5.63;;;3.05;;
42084;SDS011;27746;52.228;20.890;2023-01-15T12:54:36;6.47;;;3.20;;
42084;SDS011;27746;52.228;20.890;2023-01-15T12:57:07;7.22;;;3.50;;
42084;SDS011;27746;52.228;20.890;2023-01-15T12:59:41;6.45;;;3.20;;
42084;SDS011;27746;52.228;20.890;2023-01-15T13:02:12;6.45;;;2.83;;
42084;SDS011;27746;52.228;20.890;2023-01-15T13:04:42;6.95;;;3.75;;
42084;SDS011;27746;52.228;20.890;2023-01-15T13:07:13;6.25;;;3.10;;
42084;SDS011;27746;52.228;20.890;2023-01-15T13:09:43;6.57;;;3.22;;
42084;SDS011;27746;52.228;20.890;2023-01-15T13:12:11;7.55;;;3.35;;
42084;SDS011;27746;52.228;20.890;2023-01-15T13:14:39;6.70;;;3.40;;
42084;SDS011;27746;52.228;20.890;2023-01-15T13:17:09;6.53;;;3.17;;
42084;SDS011;27746;52.228;20.890;2023-01-15T13:19:39;6.15;;;3.40;;
42084;SDS011;27746;52.228;20.890;2023-01-15T13:22:13;6.55;;;3.40;;
42084;SDS011;27746;52.228;20.890;2023-01-15T13:24:53;6.93;;;3.35;;
42084;SDS011;27746;52.228;20.890;2023-01-15T13:27:26;5.97;;;2.90;;
42084;SDS011;27746;52.228;20.890;2023-01-15T13:29:59;7.05;;;3.05;;
42084;SDS011;27746;52.228;20.890;2023-01-15T13:32:31;6.18;;;2.92;;
42084;SDS011;27746;52.228;20.890;2023-01-15T13:35:00;6.85;;;3.25;;
42084;SDS011;27746;52.228;20.890;2023-01-15T13:37:33;6.85;;;3.30;;
42084;SDS011;27746;52.228;20.890;2023-01-15T13:40:02;6.32;;;3.33;;
42084;SDS011;27746;52.228;20.890;2023-01-15T13:42:30;6.32;;;3.30;;
42084;SDS011;27746;52.228;20.890;2023-01-15T13:44:59;7.93;;;3.72;;
42084;SDS011;27746;52.228;20.890;2023-01-15T13:47:27;7.13;;;3.30;;
42084;SDS011;27746;52.228;20.890;2023-01-15T13:49:57;8.30;;;4.38;;
42084;SDS011;27746;52.228;20.890;2023-01-15T13:52:25;10.75;;;4.15;;
42084;SDS011;27746;52.228;20.890;2023-01-15T13:54:58;10.00;;;4.40;;
42084;SDS011;27746;52.228;20.890;2023-01-15T13:57:31;5.97;;;3.70;;
42084;SDS011;27746;52.228;20.890;2023-01-15T13:59:59;6.25;;;3.35;;
42084;SDS011;27746;52.228;20.890;2023-01-15T14:02:29;7.03;;;3.50;;
42084;SDS011;27746;52.228;20.890;2023-01-15T14:04:56;8.80;;;3.53;;
42084;SDS011;27746;52.228;20.890;2023-01-15T14:07:31;7.95;;;4.18;;
42084;SDS011;27746;52.228;20.890;2023-01-15T14:10:18;7.22;;;3.83;;
42084;SDS011;27746;52.228;20.890;2023-01-15T14:12:48;8.00;;;4.10;;
42084;SDS011;27746;52.228;20.890;2023-01-15T14:15:25;6.75;;;3.35;;
42084;SDS011;27746;52.228;20.890;2023-01-15T14:20:45;7.97;;;3.67;;
42084;SDS011;27746;52.228;20.890;2023-01-15T14:23:21;9.25;;;4.18;;
42084;SDS011;27746;52.228;20.890;2023-01-15T14:25:59;8.05;;;3.63;;
42084;SDS011;27746;52.228;20.890;2023-01-15T14:28:41;7.13;;;4.43;;
42084;SDS011;27746;52.228;20.890;2023-01-15T14:34:12;7.68;;;4.15;;
42084;SDS011;27746;52.228;20.890;2023-01-15T14:36:50;7.95;;;4.25;;
42084;SDS011;27746;52.228;20.890;2023-01-15T14:39:22;8.02;;;4.32;;
42084;SDS011;27746;52.228;20.890;2023-01-15T14:41:55;9.25;;;4.45;;
42084;SDS011;27746;52.228;20.890;2023-01-15T14:44:41;10.63;;;4.38;;
42084;SDS011;27746;52.228;20.890;2023-01-15T14:47:14;9.18;;;4.80;;
42084;SDS011;27746;52.228;20.890;2023-01-15T14:49:45;9.77;;;4.70;;
42084;SDS011;27746;52.228;20.890;2023-01-15T14:52:14;7.03;;;3.53;;
42084;SDS011;27746;52.228;20.890;2023-01-15T14:54:42;11.45;;;5.55;;
42084;SDS011;27746;52.228;20.890;2023-01-15T14:57:11;9.68;;;4.53;;
42084;SDS011;27746;52.228;20.890;2023-01-15T14:59:41;8.75;;;3.67;;
42084;SDS011;27746;52.228;20.890;2023-01-15T15:02:13;11.52;;;5.07;;
42084;SDS011;27746;52.228;20.890;2023-01-15T15:04:42;8.52;;;4.40;;